Sudley Springs, Virginia
Current Conditions -  °F | °C
As of 6:45 AM on Thursday 18 Dec 2014 (Local Time) from KHEF Reporting Station
Broken Clouds Broken Clouds  
Wind Chill: 25°   Ceiling: 3900
Heat Index: 34°   Visibility: 10mi
Dew Point: 21°   Wind: 13mph
Humidity: 60%   Direction: 320°NW
Pressure: 30.16"   Gusts: NA
Location:  38.7882°N, 77.5328°W
Report Text: KHEF 181145Z 32011KT 10SM BKN039 01/M06 A3016
Loading
Personal Weather Stations






























Interactive Weather Map New forecast layout! Learn more

10-Day Weather Forecast

Advertisements
Track Severe Weather on mobile